sensor_id;sensor_type;location;lat;lon;timestamp;pressure;altitude;pressure_sealevel;temperature;humidity
51099;BME280;37146;48.210;16.234;2023-04-04T00:00:51;99471.25;;;0.46;57.70
51099;BME280;37146;48.210;16.234;2023-04-04T00:03:17;99472.16;;;0.34;57.60
51099;BME280;37146;48.210;16.234;2023-04-04T00:05:44;99473.06;;;0.30;58.69
51099;BME280;37146;48.210;16.234;2023-04-04T00:08:09;99473.00;;;0.45;58.39
51099;BME280;37146;48.210;16.234;2023-04-04T00:10:34;99474.78;;;0.43;58.12
51099;BME280;37146;48.210;16.234;2023-04-04T00:13:00;99468.66;;;0.32;57.20
51099;BME280;37146;48.210;16.234;2023-04-04T00:15:25;99473.06;;;0.30;56.66
51099;BME280;37146;48.210;16.234;2023-04-04T00:17:51;99477.44;;;0.33;56.35
51099;BME280;37146;48.210;16.234;2023-04-04T00:20:16;99475.66;;;0.36;57.27
51099;BME280;37146;48.210;16.234;2023-04-04T00:22:41;99474.78;;;0.37;58.27
51099;BME280;37146;48.210;16.234;2023-04-04T00:25:07;99466.91;;;0.33;58.04
51099;BME280;37146;48.210;16.234;2023-04-04T00:27:33;99467.78;;;0.27;57.46
51099;BME280;37146;48.210;16.234;2023-04-04T00:29:58;99466.94;;;0.23;59.61
51099;BME280;37146;48.210;16.234;2023-04-04T00:32:24;99470.41;;;0.28;58.29
51099;BME280;37146;48.210;16.234;2023-04-04T00:34:52;99472.22;;;0.22;58.68
51099;BME280;37146;48.210;16.234;2023-04-04T00:37:17;99460.81;;;0.07;58.85
51099;BME280;37146;48.210;16.234;2023-04-04T00:39:43;99469.59;;;0.06;59.59
51099;BME280;37146;48.210;16.234;2023-04-04T00:42:08;99461.69;;;0.03;59.78
51099;BME280;37146;48.210;16.234;2023-04-04T00:44:33;99467.84;;;0.05;60.61
51099;BME280;37146;48.210;16.234;2023-04-04T00:47:00;99468.75;;;-0.11;60.49
51099;BME280;37146;48.210;16.234;2023-04-04T00:49:25;99474.00;;;0.03;62.25
51099;BME280;37146;48.210;16.234;2023-04-04T00:51:51;99476.63;;;-0.11;61.73
51099;BME280;37146;48.210;16.234;2023-04-04T00:54:16;99476.63;;;-0.08;61.51
51099;BME280;37146;48.210;16.234;2023-04-04T00:56:42;99471.38;;;-0.14;62.01
51099;BME280;37146;48.210;16.234;2023-04-04T00:59:07;99468.75;;;-0.24;62.05
51099;BME280;37146;48.210;16.234;2023-04-04T01:01:33;99474.91;;;-0.34;64.27
51099;BME280;37146;48.210;16.234;2023-04-04T01:03:58;99467.88;;;-0.17;63.51
51099;BME280;37146;48.210;16.234;2023-04-04T01:06:23;99474.88;;;-0.22;62.81
51099;BME280;37146;48.210;16.234;2023-04-04T01:08:50;99467.00;;;-0.28;62.73
51099;BME280;37146;48.210;16.234;2023-04-04T01:11:16;99468.75;;;-0.25;63.91
51099;BME280;37146;48.210;16.234;2023-04-04T01:13:42;99466.13;;;-0.18;62.79
51099;BME280;37146;48.210;16.234;2023-04-04T01:16:08;99470.50;;;-0.20;62.19
51099;BME280;37146;48.210;16.234;2023-04-04T01:18:33;99459.97;;;-0.17;62.61
51099;BME280;37146;48.210;16.234;2023-04-04T01:21:07;99474.88;;;-0.25;62.75
51099;BME280;37146;48.210;16.234;2023-04-04T01:23:43;99467.88;;;-0.13;62.76
51099;BME280;37146;48.210;16.234;2023-04-04T01:26:11;99467.84;;;0.01;63.27
51099;BME280;37146;48.210;16.234;2023-04-04T01:28:36;99466.13;;;-0.11;63.55
51099;BME280;37146;48.210;16.234;2023-04-04T01:31:01;99467.88;;;-0.20;62.85
51099;BME280;37146;48.210;16.234;2023-04-04T01:33:30;99471.34;;;-0.08;64.44
51099;BME280;37146;48.210;16.234;2023-04-04T01:36:04;99468.75;;;-0.11;64.30
51099;BME280;37146;48.210;16.234;2023-04-04T01:41:15;99467.84;;;-0.04;62.65
51099;BME280;37146;48.210;16.234;2023-04-04T01:43:43;99464.34;;;-0.02;60.95
51099;BME280;37146;48.210;16.234;2023-04-04T01:46:08;99467.84;;;0.05;61.60
51099;BME280;37146;48.210;16.234;2023-04-04T01:48:34;99468.75;;;-0.11;61.35
51099;BME280;37146;48.210;16.234;2023-04-04T01:50:59;99466.09;;;0.10;61.06
51099;BME280;37146;48.210;16.234;2023-04-04T01:53:25;99477.47;;;0.14;62.38
51099;BME280;37146;48.210;16.234;2023-04-04T01:55:50;99467.81;;;0.18;61.35
51099;BME280;37146;48.210;16.234;2023-04-04T01:58:16;99473.97;;;0.07;61.86
51099;BME280;37146;48.210;16.234;2023-04-04T02:00:41;99466.03;;;0.23;61.99
51099;BME280;37146;48.210;16.234;2023-04-04T02:03:06;99462.59;;;0.01;61.36
51099;BME280;37146;48.210;16.234;2023-04-04T02:05:32;99457.31;;;0.05;61.54
51099;BME280;37146;48.210;16.234;2023-04-04T02:07:57;99469.59;;;0.03;62.33
51099;BME280;37146;48.210;16.234;2023-04-04T02:10:22;99470.47;;;0.05;61.19
51099;BME280;37146;48.210;16.234;2023-04-04T02:12:47;99465.22;;;0.08;61.11
51099;BME280;37146;48.210;16.234;2023-04-04T02:15:12;99471.34;;;0.01;61.36
51099;BME280;37146;48.210;16.234;2023-04-04T02:17:38;99459.94;;;0.10;61.05
51099;BME280;37146;48.210;16.234;2023-04-04T02:20:04;99463.47;;;-0.01;60.77
51099;BME280;37146;48.210;16.234;2023-04-04T02:22:30;99464.34;;;0.00;60.48
51099;BME280;37146;48.210;16.234;2023-04-04T02:24:55;99450.34;;;-0.10;61.45
51099;BME280;37146;48.210;16.234;2023-04-04T02:27:21;99449.44;;;-0.04;60.88
51099;BME280;37146;48.210;16.234;2023-04-04T02:29:47;99455.59;;;-0.08;60.37
51099;BME280;37146;48.210;16.234;2023-04-04T02:32:12;99456.50;;;-0.17;60.84
51099;BME280;37146;48.210;16.234;2023-04-04T02:34:37;99455.59;;;-0.14;61.37
51099;BME280;37146;48.210;16.234;2023-04-04T02:37:03;99445.09;;;-0.19;61.37
51099;BME280;37146;48.210;16.234;2023-04-04T02:39:28;99459.09;;;-0.22;62.34
51099;BME280;37146;48.210;16.234;2023-04-04T02:41:54;99456.47;;;-0.36;62.15
51099;BME280;37146;48.210;16.234;2023-04-04T02:44:19;99448.59;;;-0.53;61.88
51099;BME280;37146;48.210;16.234;2023-04-04T02:46:44;99461.72;;;-0.43;62.97
51099;BME280;37146;48.210;16.234;2023-04-04T02:49:09;99457.38;;;-0.44;62.56
51099;BME280;37146;48.210;16.234;2023-04-04T02:51:36;99459.97;;;-0.58;62.20
51099;BME280;37146;48.210;16.234;2023-04-04T02:54:01;99459.13;;;-0.59;62.97
51099;BME280;37146;48.210;16.234;2023-04-04T02:56:27;99452.09;;;-0.54;62.77
51099;BME280;37146;48.210;16.234;2023-04-04T02:58:52;99456.47;;;-0.81;63.08
51099;BME280;37146;48.210;16.234;2023-04-04T03:01:18;99461.72;;;-0.67;63.41
51099;BME280;37146;48.210;16.234;2023-04-04T03:03:43;99450.31;;;-0.83;63.65
51099;BME280;37146;48.210;16.234;2023-04-04T03:06:08;99452.09;;;-0.77;63.50
51099;BME280;37146;48.210;16.234;2023-04-04T03:08:34;99453.81;;;-0.88;63.45
51099;BME280;37146;48.210;16.234;2023-04-04T03:11:00;99451.19;;;-0.79;63.94
51099;BME280;37146;48.210;16.234;2023-04-04T03:13:25;99452.97;;;-0.84;65.09
51099;BME280;37146;48.210;16.234;2023-04-04T03:15:56;99448.59;;;-0.81;64.53
51099;BME280;37146;48.210;16.234;2023-04-04T03:18:21;99449.41;;;-0.93;64.30
51099;BME280;37146;48.210;16.234;2023-04-04T03:20:47;99433.69;;;-0.89;63.47
51099;BME280;37146;48.210;16.234;2023-04-04T03:23:12;99437.19;;;-0.92;64.30
51099;BME280;37146;48.210;16.234;2023-04-04T03:25:37;99434.53;;;-0.98;64.80
51099;BME280;37146;48.210;16.234;2023-04-04T03:28:09;99436.28;;;-1.08;65.18
51099;BME280;37146;48.210;16.234;2023-04-04T03:30:34;99431.03;;;-1.13;64.59
51099;BME280;37146;48.210;16.234;2023-04-04T03:33:02;99425.78;;;-1.06;65.34
51099;BME280;37146;48.210;16.234;2023-04-04T03:35:27;99428.38;;;-1.06;65.01
51099;BME280;37146;48.210;16.234;2023-04-04T03:37:52;99428.34;;;-1.19;65.68
51099;BME280;37146;48.210;16.234;2023-04-04T03:40:18;99424.91;;;-1.07;64.31
51099;BME280;37146;48.210;16.234;2023-04-04T03:42:43;99414.41;;;-1.01;64.89
51099;BME280;37146;48.210;16.234;2023-04-04T03:45:09;99425.75;;;-1.10;65.49
51099;BME280;37146;48.210;16.234;2023-04-04T03:47:35;99421.38;;;-1.14;65.34
51099;BME280;37146;48.210;16.234;2023-04-04T03:50:00;99433.63;;;-1.11;64.84
51099;BME280;37146;48.210;16.234;2023-04-04T03:52:26;99418.72;;;-1.20;65.23
51099;BME280;37146;48.210;16.234;2023-04-04T03:54:51;99426.66;;;-1.09;64.96
51099;BME280;37146;48.210;16.234;2023-04-04T03:57:16;99414.34;;;-1.22;65.19
51099;BME280;37146;48.210;16.234;2023-04-04T03:59:42;99417.84;;;-1.27;64.87
51099;BME280;37146;48.210;16.234;2023-04-04T04:02:07;99422.25;;;-1.10;65.69
51099;BME280;37146;48.210;16.234;2023-04-04T04:04:32;99417.81;;;-1.33;66.08
51099;BME280;37146;48.210;16.234;2023-04-04T04:06:57;99410.00;;;-1.19;64.82
51099;BME280;37146;48.210;16.234;2023-04-04T04:09:23;99413.47;;;-1.32;65.34
51099;BME280;37146;48.210;16.234;2023-04-04T04:11:48;99413.47;;;-1.31;65.59
51099;BME280;37146;48.210;16.234;2023-04-04T04:14:13;99410.81;;;-1.37;65.11
51099;BME280;37146;48.210;16.234;2023-04-04T04:16:38;99409.09;;;-1.33;65.07
51099;BME280;37146;48.210;16.234;2023-04-04T04:19:04;99407.38;;;-1.25;64.98
51099;BME280;37146;48.210;16.234;2023-04-04T04:21:29;99408.22;;;-1.29;66.36
51099;BME280;37146;48.210;16.234;2023-04-04T04:23:54;99410.78;;;-1.48;65.04
51099;BME280;37146;48.210;16.234;2023-04-04T04:26:20;99405.59;;;-1.26;66.21
51099;BME280;37146;48.210;16.234;2023-04-04T04:28:45;99416.91;;;-1.43;65.40
51099;BME280;37146;48.210;16.234;2023-04-04T04:31:12;99403.84;;;-1.30;65.45
51099;BME280;37146;48.210;16.234;2023-04-04T04:33:37;99408.19;;;-1.45;65.64
51099;BME280;37146;48.210;16.234;2023-04-04T04:36:02;99417.84;;;-1.27;66.48
51099;BME280;37146;48.210;16.234;2023-04-04T04:38:28;99408.22;;;-1.26;65.25
51099;BME280;37146;48.210;16.234;2023-04-04T04:40:54;99416.94;;;-1.30;66.37
51099;BME280;37146;48.210;16.234;2023-04-04T04:43:20;99405.59;;;-1.31;66.19
51099;BME280;37146;48.210;16.234;2023-04-04T04:45:45;99425.72;;;-1.34;66.60
51099;BME280;37146;48.210;16.234;2023-04-04T04:48:11;99423.03;;;-1.51;65.69
51099;BME280;37146;48.210;16.234;2023-04-04T04:50:37;99422.22;;;-1.33;65.44
51099;BME280;37146;48.210;16.234;2023-04-04T04:53:02;99418.66;;;-1.42;66.25
51099;BME280;37146;48.210;16.234;2023-04-04T04:55:27;99435.28;;;-1.43;66.03
51099;BME280;37146;48.210;16.234;2023-04-04T04:57:52;99428.28;;;-1.41;65.30
51099;BME280;37146;48.210;16.234;2023-04-04T05:00:18;99428.34;;;-1.25;66.78
51099;BME280;37146;48.210;16.234;2023-04-04T05:02:43;99436.28;;;-1.03;65.37
51099;BME280;37146;48.210;16.234;2023-04-04T05:05:08;99434.47;;;-1.32;65.47
51099;BME280;37146;48.210;16.234;2023-04-04T05:07:34;99442.41;;;-1.11;65.36
51099;BME280;37146;48.210;16.234;2023-04-04T05:09:59;99440.63;;;-1.18;67.24
51099;BME280;37146;48.210;16.234;2023-04-04T05:12:24;99444.06;;;-1.33;65.39
51099;BME280;37146;48.210;16.234;2023-04-04T05:14:51;99444.97;;;-1.26;65.13
51099;BME280;37146;48.210;16.234;2023-04-04T05:17:16;99441.53;;;-1.13;64.93
51099;BME280;37146;48.210;16.234;2023-04-04T05:19:41;99439.78;;;-1.03;63.79
51099;BME280;37146;48.210;16.234;2023-04-04T05:22:06;99449.44;;;-0.94;63.68
51099;BME280;37146;48.210;16.234;2023-04-04T05:24:32;99443.31;;;-0.90;64.43
51099;BME280;37146;48.210;16.234;2023-04-04T05:26:57;99455.59;;;-0.89;63.35
51099;BME280;37146;48.210;16.234;2023-04-04T05:29:22;99459.06;;;-0.87;63.67
51099;BME280;37146;48.210;16.234;2023-04-04T05:31:48;99451.19;;;-0.88;63.78
51099;BME280;37146;48.210;16.234;2023-04-04T05:34:13;99447.66;;;-1.01;63.97
51099;BME280;37146;48.210;16.234;2023-04-04T05:36:38;99458.22;;;-0.80;65.22
51099;BME280;37146;48.210;16.234;2023-04-04T05:39:03;99460.81;;;-0.86;63.90
51099;BME280;37146;48.210;16.234;2023-04-04T05:41:29;99458.19;;;-0.83;63.04
51099;BME280;37146;48.210;16.234;2023-04-04T05:43:54;99448.56;;;-0.70;63.10
51099;BME280;37146;48.210;16.234;2023-04-04T05:46:19;99455.59;;;-0.73;62.58
51099;BME280;37146;48.210;16.234;2023-04-04T05:48:44;99446.84;;;-0.63;62.42
51099;BME280;37146;48.210;16.234;2023-04-04T05:51:10;99445.97;;;-0.59;61.25
51099;BME280;37146;48.210;16.234;2023-04-04T05:53:35;99455.63;;;-0.58;60.77
51099;BME280;37146;48.210;16.234;2023-04-04T05:56:00;99467.00;;;-0.56;60.41
51099;BME280;37146;48.210;16.234;2023-04-04T05:58:26;99462.63;;;-0.48;60.52
51099;BME280;37146;48.210;16.234;2023-04-04T06:00:51;99467.88;;;-0.44;58.68
51099;BME280;37146;48.210;16.234;2023-04-04T06:03:16;99470.50;;;-0.41;59.46
51099;BME280;37146;48.210;16.234;2023-04-04T06:05:42;99467.88;;;-0.26;58.71
51099;BME280;37146;48.210;16.234;2023-04-04T06:08:08;99468.75;;;-0.27;57.64
51099;BME280;37146;48.210;16.234;2023-04-04T06:10:33;99473.13;;;-0.18;57.97
51099;BME280;37146;48.210;16.234;2023-04-04T06:12:58;99471.34;;;-0.04;56.76
51099;BME280;37146;48.210;16.234;2023-04-04T06:15:24;99477.47;;;0.03;57.07
51099;BME280;37146;48.210;16.234;2023-04-04T06:17:49;99473.13;;;-0.01;56.38
51099;BME280;37146;48.210;16.234;2023-04-04T06:20:14;99480.06;;;0.28;57.29
51099;BME280;37146;48.210;16.234;2023-04-04T06:22:40;99473.91;;;0.30;56.08
51099;BME280;37146;48.210;16.234;2023-04-04T06:25:05;99466.91;;;0.29;55.69
51099;BME280;37146;48.210;16.234;2023-04-04T06:27:30;99472.16;;;0.29;55.40
51099;BME280;37146;48.210;16.234;2023-04-04T06:29:56;99464.25;;;0.34;54.24
51099;BME280;37146;48.210;16.234;2023-04-04T06:32:21;99475.66;;;0.42;56.30
51099;BME280;37146;48.210;16.234;2023-04-04T06:34:46;99468.53;;;0.72;55.05
51099;BME280;37146;48.210;16.234;2023-04-04T06:37:11;99472.84;;;0.84;56.13
51099;BME280;37146;48.210;16.234;2023-04-04T06:39:37;99463.19;;;0.83;55.07
51099;BME280;37146;48.210;16.234;2023-04-04T06:42:02;99461.56;;;0.57;54.74
51099;BME280;37146;48.210;16.234;2023-04-04T06:44:27;99465.00;;;0.70;54.33
51099;BME280;37146;48.210;16.234;2023-04-04T06:46:53;99470.28;;;0.70;54.63
51099;BME280;37146;48.210;16.234;2023-04-04T06:49:18;99466.66;;;0.95;54.08
51099;BME280;37146;48.210;16.234;2023-04-04T06:51:43;99466.66;;;0.93;54.18
51099;BME280;37146;48.210;16.234;2023-04-04T06:54:08;99460.44;;;1.08;53.71
51099;BME280;37146;48.210;16.234;2023-04-04T06:56:34;99470.03;;;1.18;53.77
51099;BME280;37146;48.210;16.234;2023-04-04T06:58:59;99469.19;;;1.12;53.60
51099;BME280;37146;48.210;16.234;2023-04-04T07:01:24;99462.94;;;1.30;52.83
51099;BME280;37146;48.210;16.234;2023-04-04T07:03:53;99474.28;;;1.39;53.35
51099;BME280;37146;48.210;16.234;2023-04-04T07:06:20;99481.06;;;1.75;54.22
51099;BME280;37146;48.210;16.234;2023-04-04T07:08:45;99475.75;;;1.78;53.32
51099;BME280;37146;48.210;16.234;2023-04-04T07:11:11;99472.25;;;1.74;53.54
51099;BME280;37146;48.210;16.234;2023-04-04T07:13:36;99462.28;;;2.10;51.58
51099;BME280;37146;48.210;16.234;2023-04-04T07:16:01;99473.53;;;2.26;51.76
51099;BME280;37146;48.210;16.234;2023-04-04T07:18:27;99456.22;;;1.99;51.18
51099;BME280;37146;48.210;16.234;2023-04-04T07:20:52;99458.00;;;1.98;51.69
51099;BME280;37146;48.210;16.234;2023-04-04T07:23:17;99451.69;;;2.12;51.74
51099;BME280;37146;48.210;16.234;2023-04-04T07:25:42;99463.22;;;2.01;51.30
51099;BME280;37146;48.210;16.234;2023-04-04T07:28:08;99454.31;;;2.15;51.01
51099;BME280;37146;48.210;16.234;2023-04-04T07:30:33;99447.94;;;2.35;50.46
51099;BME280;37146;48.210;16.234;2023-04-04T07:32:59;99447.16;;;2.26;51.00
51099;BME280;37146;48.210;16.234;2023-04-04T07:35:24;99452.38;;;2.31;50.78
51099;BME280;37146;48.210;16.234;2023-04-04T07:37:49;99462.63;;;2.59;50.47
51099;BME280;37146;48.210;16.234;2023-04-04T07:40:15;99456.63;;;2.44;51.00
51099;BME280;37146;48.210;16.234;2023-04-04T07:42:43;99454.06;;;2.40;50.10
51099;BME280;37146;48.210;16.234;2023-04-04T07:45:09;99445.34;;;2.31;48.60
51099;BME280;37146;48.210;16.234;2023-04-04T07:47:35;99442.13;;;2.80;49.73
51099;BME280;37146;48.210;16.234;2023-04-04T07:50:00;99431.22;;;3.03;49.86
51099;BME280;37146;48.210;16.234;2023-04-04T07:52:25;99447.91;;;3.08;47.88
51099;BME280;37146;48.210;16.234;2023-04-04T07:54:50;99439.78;;;3.20;48.87
51099;BME280;37146;48.210;16.234;2023-04-04T07:57:16;99472.50;;;3.13;47.36
51099;BME280;37146;48.210;16.234;2023-04-04T07:59:42;99456.78;;;3.04;48.91
51099;BME280;37146;48.210;16.234;2023-04-04T08:02:07;99463.41;;;3.87;47.15
51099;BME280;37146;48.210;16.234;2023-04-04T08:04:32;99456.44;;;3.83;46.50
51099;BME280;37146;48.210;16.234;2023-04-04T08:06:57;99467.59;;;4.01;45.38
51099;BME280;37146;48.210;16.234;2023-04-04T08:09:22;99450.94;;;3.96;46.39
51099;BME280;37146;48.210;16.234;2023-04-04T08:11:48;99447.06;;;4.15;44.69
51099;BME280;37146;48.210;16.234;2023-04-04T08:14:14;99441.66;;;3.70;45.53
51099;BME280;37146;48.210;16.234;2023-04-04T08:16:39;99443.59;;;4.12;45.41
51099;BME280;37146;48.210;16.234;2023-04-04T08:19:04;99450.47;;;4.21;45.09
51099;BME280;37146;48.210;16.234;2023-04-04T08:21:31;99459.13;;;3.80;45.07
51099;BME280;37146;48.210;16.234;2023-04-04T08:23:56;99458.28;;;3.80;45.99
51099;BME280;37146;48.210;16.234;2023-04-04T08:26:22;99458.06;;;4.85;44.68
51099;BME280;37146;48.210;16.234;2023-04-04T08:28:47;99450.81;;;5.32;42.70
51099;BME280;37146;48.210;16.234;2023-04-04T08:31:12;99437.66;;;5.65;42.22
51099;BME280;37146;48.210;16.234;2023-04-04T08:33:38;99446.84;;;6.56;42.01
51099;BME280;37146;48.210;16.234;2023-04-04T08:36:03;99438.72;;;6.29;42.48
51099;BME280;37146;48.210;16.234;2023-04-04T08:38:28;99440.44;;;6.93;41.10
51099;BME280;37146;48.210;16.234;2023-04-04T08:40:54;99431.72;;;7.73;39.68
51099;BME280;37146;48.210;16.234;2023-04-04T08:43:19;99430.91;;;7.71;38.88
51099;BME280;37146;48.210;16.234;2023-04-04T08:45:46;99429.41;;;7.89;37.93
51099;BME280;37146;48.210;16.234;2023-04-04T08:48:13;99433.44;;;6.90;38.80
51099;BME280;37146;48.210;16.234;2023-04-04T08:50:39;99423.97;;;7.38;37.88
51099;BME280;37146;48.210;16.234;2023-04-04T08:53:08;99448.38;;;6.31;39.87
51099;BME280;37146;48.210;16.234;2023-04-04T08:55:34;99442.69;;;5.01;42.50
51099;BME280;37146;48.210;16.234;2023-04-04T08:57:59;99435.56;;;4.15;43.93
51099;BME280;37146;48.210;16.234;2023-04-04T09:00:25;99442.09;;;4.44;44.75
51099;BME280;37146;48.210;16.234;2023-04-04T09:03:08;99422.06;;;7.42;38.95
51099;BME280;37146;48.210;16.234;2023-04-04T09:05:34;99432.44;;;6.94;39.22
51099;BME280;37146;48.210;16.234;2023-04-04T09:07:59;99422.06;;;5.51;42.30
51099;BME280;37146;48.210;16.234;2023-04-04T09:10:25;99423.25;;;5.76;41.29
51099;BME280;37146;48.210;16.234;2023-04-04T09:12:53;99416.19;;;4.58;42.57
51099;BME280;37146;48.210;16.234;2023-04-04T09:15:18;99423.13;;;4.64;41.89
51099;BME280;37146;48.210;16.234;2023-04-04T09:17:44;99413.94;;;4.82;41.94
51099;BME280;37146;48.210;16.234;2023-04-04T09:22:53;99399.03;;;8.45;36.76
51099;BME280;37146;48.210;16.234;2023-04-04T09:25:18;99407.50;;;8.06;38.03
51099;BME280;37146;48.210;16.234;2023-04-04T09:27:44;99385.78;;;6.83;38.87
51099;BME280;37146;48.210;16.234;2023-04-04T09:30:09;99391.63;;;6.01;40.98
51099;BME280;37146;48.210;16.234;2023-04-04T09:32:34;99406.28;;;5.07;43.08
51099;BME280;37146;48.210;16.234;2023-04-04T09:35:00;99402.94;;;7.84;38.00
51099;BME280;37146;48.210;16.234;2023-04-04T09:37:25;99397.19;;;7.97;37.37
51099;BME280;37146;48.210;16.234;2023-04-04T09:39:51;99388.66;;;9.31;35.58
51099;BME280;37146;48.210;16.234;2023-04-04T09:42:17;99384.84;;;8.69;36.91
51099;BME280;37146;48.210;16.234;2023-04-04T09:44:42;99387.25;;;9.44;34.12
51099;BME280;37146;48.210;16.234;2023-04-04T09:47:27;99394.38;;;9.22;34.17
51099;BME280;37146;48.210;16.234;2023-04-04T09:49:58;99383.47;;;8.82;34.27
51099;BME280;37146;48.210;16.234;2023-04-04T09:52:23;99383.25;;;8.39;35.07
51099;BME280;37146;48.210;16.234;2023-04-04T09:57:21;99399.72;;;7.19;37.37
51099;BME280;37146;48.210;16.234;2023-04-04T09:59:46;99388.03;;;6.37;40.27
51099;BME280;37146;48.210;16.234;2023-04-04T10:02:11;99371.03;;;9.49;34.85
51099;BME280;37146;48.210;16.234;2023-04-04T10:04:37;99385.25;;;10.93;32.69
51099;BME280;37146;48.210;16.234;2023-04-04T10:07:02;99371.69;;;11.15;32.57
51099;BME280;37146;48.210;16.234;2023-04-04T10:09:28;99385.09;;;10.77;32.51
51099;BME280;37146;48.210;16.234;2023-04-04T10:12:06;99368.69;;;9.62;32.87
51099;BME280;37146;48.210;16.234;2023-04-04T10:14:33;99363.44;;;10.02;32.51
51099;BME280;37146;48.210;16.234;2023-04-04T10:16:58;99367.66;;;9.44;33.61
51099;BME280;37146;48.210;16.234;2023-04-04T10:19:25;99360.66;;;7.21;37.21
51099;BME280;37146;48.210;16.234;2023-04-04T10:21:50;99373.72;;;10.72;32.36
51099;BME280;37146;48.210;16.234;2023-04-04T10:24:15;99371.25;;;9.65;33.76
51099;BME280;37146;48.210;16.234;2023-04-04T10:26:43;99382.22;;;9.59;34.20
51099;BME280;37146;48.210;16.234;2023-04-04T10:29:08;99358.97;;;9.82;34.39
51099;BME280;37146;48.210;16.234;2023-04-04T10:31:35;99372.59;;;9.10;35.96
51099;BME280;37146;48.210;16.234;2023-04-04T10:36:33;99363.56;;;9.78;32.98
51099;BME280;37146;48.210;16.234;2023-04-04T10:39:01;99359.41;;;11.11;31.78
51099;BME280;37146;48.210;16.234;2023-04-04T10:41:29;99357.25;;;11.73;31.55
51099;BME280;37146;48.210;16.234;2023-04-04T10:43:55;99352.84;;;11.36;31.61
51099;BME280;37146;48.210;16.234;2023-04-04T10:46:24;99364.94;;;9.01;35.71
51099;BME280;37146;48.210;16.234;2023-04-04T10:48:55;99353.06;;;11.31;31.71
51099;BME280;37146;48.210;16.234;2023-04-04T10:51:20;99341.81;;;12.79;29.59
51099;BME280;37146;48.210;16.234;2023-04-04T10:53:46;99355.63;;;11.15;31.50
51099;BME280;37146;48.210;16.234;2023-04-04T10:56:12;99355.97;;;11.98;30.74
51099;BME280;37146;48.210;16.234;2023-04-04T10:58:40;99353.16;;;12.35;29.61
51099;BME280;37146;48.210;16.234;2023-04-04T11:01:07;99344.94;;;12.56;29.29
51099;BME280;37146;48.210;16.234;2023-04-04T11:03:33;99350.97;;;12.43;28.77
51099;BME280;37146;48.210;16.234;2023-04-04T11:06:17;99343.56;;;13.12;29.07
51099;BME280;37146;48.210;16.234;2023-04-04T11:08:42;99334.22;;;11.52;29.82
51099;BME280;37146;48.210;16.234;2023-04-04T11:11:17;99326.22;;;12.70;29.42
51099;BME280;37146;48.210;16.234;2023-04-04T11:13:42;99336.00;;;10.78;30.52
51099;BME280;37146;48.210;16.234;2023-04-04T11:16:22;99323.13;;;10.27;31.88
51099;BME280;37146;48.210;16.234;2023-04-04T11:18:48;99306.78;;;10.54;31.10
51099;BME280;37146;48.210;16.234;2023-04-04T11:28:50;99302.88;;;11.17;30.22
51099;BME280;37146;48.210;16.234;2023-04-04T11:39:07;99282.38;;;13.34;27.99
51099;BME280;37146;48.210;16.234;2023-04-04T11:44:18;99263.44;;;11.56;28.95
51099;BME280;37146;48.210;16.234;2023-04-04T11:46:45;99274.69;;;13.43;29.05
51099;BME280;37146;48.210;16.234;2023-04-04T11:49:11;99273.63;;;13.30;28.23
51099;BME280;37146;48.210;16.234;2023-04-04T11:51:37;99261.06;;;13.30;28.63
51099;BME280;37146;48.210;16.234;2023-04-04T11:54:03;99258.34;;;12.36;30.07
51099;BME280;37146;48.210;16.234;2023-04-04T11:56:34;99257.50;;;13.30;28.13
51099;BME280;37146;48.210;16.234;2023-04-04T11:59:02;99260.69;;;16.30;25.11
51099;BME280;37146;48.210;16.234;2023-04-04T12:01:27;99265.09;;;15.26;26.05
51099;BME280;37146;48.210;16.234;2023-04-04T12:03:52;99262.63;;;14.81;26.95
51099;BME280;37146;48.210;16.234;2023-04-04T12:06:17;99251.56;;;15.66;25.65
51099;BME280;37146;48.210;16.234;2023-04-04T12:08:43;99234.13;;;11.00;29.54
51099;BME280;37146;48.210;16.234;2023-04-04T12:11:08;99244.25;;;9.98;31.83
51099;BME280;37146;48.210;16.234;2023-04-04T12:13:40;99238.56;;;9.24;32.24
51099;BME280;37146;48.210;16.234;2023-04-04T12:16:05;99233.66;;;9.36;32.78
51099;BME280;37146;48.210;16.234;2023-04-04T12:18:32;99221.25;;;10.14;32.17
51099;BME280;37146;48.210;16.234;2023-04-04T12:20:57;99215.19;;;10.11;33.46
51099;BME280;37146;48.210;16.234;2023-04-04T12:23:22;99206.44;;;9.88;33.59
51099;BME280;37146;48.210;16.234;2023-04-04T12:25:48;99215.41;;;9.04;32.50
51099;BME280;37146;48.210;16.234;2023-04-04T12:28:18;99204.44;;;9.53;32.86
51099;BME280;37146;48.210;16.234;2023-04-04T12:30:44;99223.91;;;9.35;32.80
51099;BME280;37146;48.210;16.234;2023-04-04T12:33:10;99221.31;;;9.12;33.05
51099;BME280;37146;48.210;16.234;2023-04-04T12:35:36;99197.50;;;8.41;33.16
51099;BME280;37146;48.210;16.234;2023-04-04T12:38:04;99207.97;;;9.12;33.83
51099;BME280;37146;48.210;16.234;2023-04-04T12:40:37;99216.09;;;9.30;33.99
51099;BME280;37146;48.210;16.234;2023-04-04T12:43:14;99215.41;;;9.04;34.16
51099;BME280;37146;48.210;16.234;2023-04-04T12:45:40;99206.66;;;8.58;34.87
51099;BME280;37146;48.210;16.234;2023-04-04T12:48:13;99203.91;;;8.59;34.16
51099;BME280;37146;48.210;16.234;2023-04-04T12:53:33;99207.47;;;8.60;34.47
51099;BME280;37146;48.210;16.234;2023-04-04T12:56:13;99193.28;;;8.80;34.79
51099;BME280;37146;48.210;16.234;2023-04-04T12:58:39;99196.00;;;9.01;34.38
51099;BME280;37146;48.210;16.234;2023-04-04T13:01:04;99196.59;;;9.28;34.91
51099;BME280;37146;48.210;16.234;2023-04-04T13:03:32;99197.53;;;8.63;34.60
51099;BME280;37146;48.210;16.234;2023-04-04T13:05:57;99184.41;;;8.59;35.51
51099;BME280;37146;48.210;16.234;2023-04-04T13:08:23;99192.50;;;8.56;35.61
51099;BME280;37146;48.210;16.234;2023-04-04T13:13:38;99198.47;;;9.05;35.62
51099;BME280;37146;48.210;16.234;2023-04-04T13:16:05;99187.84;;;8.61;35.50
51099;BME280;37146;48.210;16.234;2023-04-04T13:18:38;99188.22;;;8.74;35.56
51099;BME280;37146;48.210;16.234;2023-04-04T13:21:06;99193.41;;;9.20;34.56
51099;BME280;37146;48.210;16.234;2023-04-04T13:23:32;99182.63;;;8.80;33.24